Time;durP1;ratioP1;P1;durP2;ratioP2;P2;SDS_P1;SDS_P2;PMS_P1;PMS_P2;Temp;Humidity;BMP_temperature;BMP_pressure;BME280_temperature;BME280_humidity;BME280_pressure;Samples;Min_cycle;Max_cycle;Signal;HPM_P1;HPM_P2
2023/07/31 00:01:17;;;;;;;28.45;11.90;;;;;;;14.63;100.00;100897.25;4967108;28;20339;-68
2023/07/31 00:03:43;;;;;;;31.08;11.82;;;;;;;14.65;100.00;100905.16;4978431;28;20023;-67
2023/07/31 00:06:08;;;;;;;27.95;11.13;;;;;;;14.62;100.00;100900.00;4979811;28;20236;-67
2023/07/31 00:08:34;;;;;;;29.90;11.10;;;;;;;14.60;100.00;100894.75;4975938;28;20394;-68
2023/07/31 00:10:59;;;;;;;30.92;11.40;;;;;;;14.63;100.00;100893.69;4977649;28;20100;-68
2023/07/31 00:13:24;;;;;;;26.90;10.57;;;;;;;14.62;100.00;100894.63;4973410;28;20491;-68
2023/07/31 00:15:50;;;;;;;28.98;10.98;;;;;;;14.60;100.00;100901.94;4981931;28;20507;-68
2023/07/31 00:18:15;;;;;;;26.80;10.00;;;;;;;14.56;100.00;100889.72;4981691;28;20461;-69
2023/07/31 00:20:41;;;;;;;26.13;9.60;;;;;;;14.57;100.00;100892.28;4978131;28;20023;-68
2023/07/31 00:23:06;;;;;;;29.73;10.82;;;;;;;14.58;100.00;100902.03;4972852;28;20520;-69
2023/07/31 00:25:32;;;;;;;30.02;10.23;;;;;;;14.57;100.00;100896.78;4974903;28;20030;-69
2023/07/31 00:27:57;;;;;;;28.20;10.18;;;;;;;14.55;100.00;100882.66;4980326;28;20026;-70
2023/07/31 00:30:25;;;;;;;26.45;9.90;;;;;;;14.52;100.00;100890.88;4974978;28;20054;-69
2023/07/31 00:32:50;;;;;;;31.30;10.10;;;;;;;14.59;100.00;100894.84;4977325;28;20365;-68
2023/07/31 00:35:15;;;;;;;28.38;10.20;;;;;;;14.57;100.00;100886.06;4976431;28;20437;-71
2023/07/31 00:37:41;;;;;;;23.58;9.65;;;;;;;14.58;100.00;100893.13;4975500;28;20169;-69
2023/07/31 00:40:07;;;;;;;26.13;9.98;;;;;;;14.55;100.00;100890.69;4981825;28;20359;-68
2023/07/31 00:42:32;;;;;;;25.92;9.57;;;;;;;14.54;100.00;100887.13;4974990;28;20034;-69
2023/07/31 00:44:58;;;;;;;21.85;8.85;;;;;;;14.53;100.00;100884.56;4972930;28;20503;-69
2023/07/31 00:47:23;;;;;;;24.98;9.27;;;;;;;14.57;100.00;100888.75;4974023;28;20604;-69
2023/07/31 00:49:49;;;;;;;24.02;8.48;;;;;;;14.55;100.00;100882.66;4980945;28;20117;-69
2023/07/31 00:52:14;;;;;;;20.67;8.20;;;;;;;14.54;100.00;100881.75;4980999;28;20030;-70
2023/07/31 00:54:40;;;;;;;22.95;8.05;;;;;;;14.52;100.00;100882.84;4977399;28;20022;-70
2023/07/31 00:57:07;;;;;;;20.60;8.40;;;;;;;14.52;100.00;100880.16;4976174;28;20030;-70
2023/07/31 00:59:32;;;;;;;29.38;8.80;;;;;;;14.49;100.00;100880.34;4971548;28;20030;-70
2023/07/31 01:01:58;;;;;;;16.75;8.10;;;;;;;14.47;100.00;100879.59;4974262;28;20428;-70
2023/07/31 01:04:23;;;;;;;18.30;7.72;;;;;;;14.49;100.00;100880.34;4975722;28;20153;-70
2023/07/31 01:07:01;;;;;;;18.83;8.23;;;;;;;14.44;100.00;100878.81;4980086;28;20477;-71
2023/07/31 01:09:55;;;;;;;21.20;7.70;;;;;;;14.45;100.00;100877.00;4972111;28;20140;-71
2023/07/31 01:12:22;;;;;;;;;;;;;;;14.42;100.00;100877.19;4959115;28;20480;-70
2023/07/31 01:15:01;;;;;;;17.77;7.65;;;;;;;14.38;100.00;100876.56;4965487;28;20392;-70
2023/07/31 01:17:26;;;;;;;23.33;8.82;;;;;;;14.34;100.00;100869.69;4967346;28;20042;-70
2023/07/31 01:19:54;;;;;;;20.88;7.85;;;;;;;14.34;100.00;100868.81;4970417;28;20034;-71
2023/07/31 01:22:41;;;;;;;20.83;7.97;;;;;;;14.32;100.00;100876.94;4967164;28;20041;-70
2023/07/31 01:25:21;;;;;;;17.95;7.95;;;;;;;14.33;100.00;100883.16;4975427;28;20433;-70
2023/07/31 01:27:59;;;;;;;23.85;8.35;;;;;;;14.32;100.00;100873.41;4964347;28;20038;-70
2023/07/31 01:30:29;;;;;;;18.55;7.90;;;;;;;14.29;100.00;100871.78;4967540;28;20448;-70
2023/07/31 01:32:56;;;;;;;24.15;8.18;;;;;;;14.31;100.00;100872.56;4965913;28;20249;-69
2023/07/31 01:35:21;;;;;;;22.23;7.88;;;;;;;14.32;100.00;100871.59;4967458;28;20060;-71
2023/07/31 01:37:47;;;;;;;23.90;8.32;;;;;;;14.31;100.00;100867.19;4967332;28;20045;-69
2023/07/31 01:40:12;;;;;;;26.65;9.48;;;;;;;14.31;100.00;100861.84;4969501;28;20124;-71
2023/07/31 01:42:37;;;;;;;23.13;8.95;;;;;;;14.31;100.00;100867.19;4967665;28;20030;-71
2023/07/31 01:45:03;;;;;;;19.25;8.07;;;;;;;14.31;100.00;100859.16;4970232;28;20616;-70
2023/07/31 01:47:28;;;;;;;17.67;7.60;;;;;;;14.33;100.00;100865.25;4970503;28;20384;-72
2023/07/31 01:49:54;;;;;;;21.42;8.50;;;;;;;14.33;100.00;100861.72;4971908;28;20026;-70
2023/07/31 01:52:19;;;;;;;19.35;7.68;;;;;;;14.31;100.00;100863.66;4969236;28;20080;-71
2023/07/31 01:54:44;;;;;;;15.98;7.50;;;;;;;14.30;100.00;100859.28;4972759;28;21207;-71
2023/07/31 01:57:10;;;;;;;19.75;7.82;;;;;;;14.30;100.00;100861.97;4968877;28;20053;-71
2023/07/31 01:59:35;;;;;;;20.63;8.90;;;;;;;14.28;100.00;100862.03;4975504;28;20166;-70
2023/07/31 02:02:01;;;;;;;21.00;7.43;;;;;;;14.26;100.00;100853.25;4966721;28;20042;-71
2023/07/31 02:04:26;;;;;;;19.75;7.22;;;;;;;14.20;100.00;100846.47;4966172;28;20051;-71
2023/07/31 02:06:52;;;;;;;22.40;7.50;;;;;;;14.25;100.00;100848.00;4965923;28;20054;-70
2023/07/31 02:09:18;;;;;;;24.00;8.90;;;;;;;14.21;100.00;100850.00;4970745;28;20030;-72
2023/07/31 02:11:43;;;;;;;19.75;7.78;;;;;;;14.17;100.00;100829.75;4967898;28;20133;-73
2023/07/31 02:14:08;;;;;;;19.60;7.93;;;;;;;14.17;100.00;100837.78;4969190;28;20085;-72
2023/07/31 02:16:34;;;;;;;20.35;7.90;;;;;;;14.21;100.00;100825.91;4965607;28;20030;-72
2023/07/31 02:18:59;;;;;;;18.23;7.78;;;;;;;14.19;100.00;100831.38;4969610;28;20229;-71
2023/07/31 02:21:24;;;;;;;16.38;8.02;;;;;;;14.17;100.00;100824.41;4968123;28;21397;-72
2023/07/31 02:23:50;;;;;;;20.95;8.02;;;;;;;14.12;100.00;100808.66;4967145;28;20118;-72
2023/07/31 02:26:15;;;;;;;20.70;7.90;;;;;;;14.19;100.00;100820.69;4965440;28;20061;-71
2023/07/31 02:28:42;;;;;;;17.20;7.80;;;;;;;14.17;100.00;100817.25;4964820;28;20305;-71
2023/07/31 02:31:08;;;;;;;17.88;8.45;;;;;;;14.18;100.00;100821.66;4964706;28;20026;-72
2023/07/31 02:33:33;;;;;;;17.80;7.60;;;;;;;14.19;100.00;100815.31;4972740;28;20045;-71
2023/07/31 02:35:59;;;;;;;18.60;7.97;;;;;;;14.20;100.00;100811.69;4971462;28;20027;-72
2023/07/31 02:38:24;;;;;;;15.68;7.88;;;;;;;14.21;100.00;100809.84;4969599;28;20030;-70
2023/07/31 02:40:49;;;;;;;17.23;8.07;;;;;;;14.17;100.00;100805.66;4974091;28;20042;-72
2023/07/31 02:43:15;;;;;;;19.02;7.63;;;;;;;14.23;100.00;100802.59;4969909;28;20026;-72
2023/07/31 02:45:40;;;;;;;18.27;7.35;;;;;;;14.25;100.00;100797.97;4974276;28;20125;-71
2023/07/31 02:48:06;;;;;;;15.93;7.15;;;;;;;14.24;100.00;100804.31;4973613;28;20034;-72
2023/07/31 02:50:32;;;;;;;21.70;9.10;;;;;;;14.27;100.00;100804.09;4969923;28;20026;-72
2023/07/31 02:52:57;;;;;;;16.88;7.57;;;;;;;14.29;100.00;100793.28;4972673;28;20026;-72
2023/07/31 02:55:22;;;;;;;15.90;7.82;;;;;;;14.28;100.00;100794.25;4971746;28;20152;-72
2023/07/31 02:57:48;;;;;;;17.30;7.82;;;;;;;14.34;100.00;100799.22;4968299;28;20110;-71
2023/07/31 03:00:13;;;;;;;16.48;7.55;;;;;;;14.30;100.00;100803.91;4969333;28;20076;-71
2023/07/31 03:02:38;;;;;;;19.70;7.90;;;;;;;14.31;100.00;100786.88;4970679;28;20880;-72
2023/07/31 03:05:04;;;;;;;20.58;7.68;;;;;;;14.36;100.00;100798.13;4968835;28;20180;-71
2023/07/31 03:07:30;;;;;;;19.83;8.23;;;;;;;14.37;100.00;100794.47;4969826;28;20181;-72
2023/07/31 03:09:55;;;;;;;13.85;7.40;;;;;;;14.38;100.00;100787.31;4972499;28;20042;-72
2023/07/31 03:12:21;;;;;;;17.92;7.38;;;;;;;14.35;100.00;100788.38;4970720;28;20026;-71
2023/07/31 03:14:46;;;;;;;15.32;7.78;;;;;;;14.40;100.00;100788.06;4969609;28;20512;-72
2023/07/31 03:17:11;;;;;;;21.27;8.40;;;;;;;14.39;100.00;100784.53;4968559;28;20030;-72
2023/07/31 03:19:37;;;;;;;17.27;7.80;;;;;;;14.42;100.00;100789.69;4970547;28;20109;-72
2023/07/31 03:22:02;;;;;;;18.67;7.65;;;;;;;14.45;100.00;100796.66;4966298;28;20771;-72
2023/07/31 03:24:29;;;;;;;15.07;7.28;;;;;;;14.44;100.00;100790.44;4970417;28;20185;-73
2023/07/31 03:26:54;;;;;;;17.77;7.72;;;;;;;14.43;100.00;100780.69;4970759;28;20085;-72
2023/07/31 03:29:20;;;;;;;19.38;7.35;;;;;;;14.51;100.00;100790.06;4968786;28;20038;-72
2023/07/31 03:31:45;;;;;;;21.65;7.50;;;;;;;14.52;100.00;100789.97;4968295;28;20603;-72
2023/07/31 03:34:11;;;;;;;20.70;8.00;;;;;;;14.53;100.00;100783.63;4969200;28;20034;-72
2023/07/31 03:36:36;;;;;;;18.48;7.70;;;;;;;14.55;100.00;100780.88;4968644;28;20488;-72
2023/07/31 03:39:01;;;;;;;20.27;7.63;;;;;;;14.56;100.00;100774.53;4969116;28;20038;-72
2023/07/31 03:41:27;;;;;;;18.05;7.43;;;;;;;14.61;100.00;100772.41;4972981;28;20292;-70
2023/07/31 03:43:52;;;;;;;17.20;7.15;;;;;;;14.60;100.00;100776.91;4968313;28;20023;-72
2023/07/31 03:46:18;;;;;;;18.02;7.30;;;;;;;14.65;100.00;100777.44;4967984;28;20784;-72
2023/07/31 03:48:43;;;;;;;19.52;7.65;;;;;;;14.67;100.00;100775.53;4976136;28;20035;-71
2023/07/31 03:51:09;;;;;;;15.40;7.28;;;;;;;14.68;100.00;100766.50;4971564;28;20182;-72
2023/07/31 03:53:34;;;;;;;19.17;7.40;;;;;;;14.69;100.00;100764.69;4967293;28;20029;-71
2023/07/31 03:55:59;;;;;;;19.95;6.57;;;;;;;14.70;100.00;100767.25;4970301;28;20063;-71
2023/07/31 03:58:25;;;;;;;14.60;7.07;;;;;;;14.72;100.00;100767.16;4968016;28;20108;-72
2023/07/31 04:00:50;;;;;;;15.38;7.28;;;;;;;14.73;100.00;100763.50;4969738;28;20088;-72
2023/07/31 04:03:16;;;;;;;18.33;7.72;;;;;;;14.76;100.00;100751.75;4968489;28;20556;-72
2023/07/31 04:05:41;;;;;;;16.88;7.95;;;;;;;14.78;100.00;100756.00;4968744;28;20061;-72
2023/07/31 04:08:06;;;;;;;16.48;7.10;;;;;;;14.78;100.00;100745.28;4968272;28;20034;-71
2023/07/31 04:10:33;;;;;;;14.43;7.28;;;;;;;14.82;100.00;100744.09;4972794;28;20092;-71
2023/07/31 04:13:00;;;;;;;18.85;7.57;;;;;;;14.82;100.00;100738.75;4967635;28;20026;-70
2023/07/31 04:15:25;;;;;;;15.32;6.78;;;;;;;14.86;100.00;100744.75;4965928;28;20598;-71
2023/07/31 04:17:51;;;;;;;13.68;6.47;;;;;;;14.92;100.00;100739.84;4965809;28;20038;-71
2023/07/31 04:20:17;;;;;;;15.68;6.85;;;;;;;14.90;100.00;100732.84;4970682;28;20109;-71
2023/07/31 04:22:42;;;;;;;16.23;7.18;;;;;;;14.92;100.00;100729.13;4970440;28;20034;-72
2023/07/31 04:25:08;;;;;;;14.88;7.13;;;;;;;14.89;100.00;100715.94;4968631;28;20037;-72
2023/07/31 04:27:33;;;;;;;13.38;6.93;;;;;;;14.96;100.00;100727.03;4968138;28;20037;-72
2023/07/31 04:29:58;;;;;;;17.10;7.82;;;;;;;15.02;100.00;100725.78;4968236;28;20753;-71
2023/07/31 04:32:24;;;;;;;13.90;7.28;;;;;;;15.01;100.00;100724.06;4968416;28;20472;-72
2023/07/31 04:34:49;;;;;;;17.33;8.40;;;;;;;15.04;100.00;100723.81;4972046;28;20103;-72
2023/07/31 04:37:15;;;;;;;15.30;7.07;;;;;;;15.05;100.00;100720.16;4967590;28;20628;-72
2023/07/31 04:39:43;;;;;;;15.30;7.00;;;;;;;15.01;100.00;100706.16;4973233;28;20034;-71
2023/07/31 04:42:08;;;;;;;13.55;6.78;;;;;;;15.11;100.00;100717.06;4970415;28;20073;-69
2023/07/31 04:44:34;;;;;;;18.05;7.32;;;;;;;15.13;100.00;100709.75;4984423;28;20405;-72
2023/07/31 04:46:59;;;;;;;16.95;7.68;;;;;;;15.14;100.00;100708.81;4968328;28;20069;-71
2023/07/31 04:49:24;;;;;;;12.90;7.40;;;;;;;15.17;100.00;100705.88;4972048;28;20019;-71
2023/07/31 04:51:50;;;;;;;12.65;6.75;;;;;;;15.15;100.00;100703.34;4967818;28;20069;-71
2023/07/31 04:54:15;;;;;;;14.75;6.68;;;;;;;15.16;100.00;100701.50;4970839;28;20386;-72
2023/07/31 04:56:41;;;;;;;15.50;7.60;;;;;;;15.19;100.00;100693.25;4962385;28;20038;-72
2023/07/31 04:59:06;;;;;;;15.35;7.20;;;;;;;15.11;100.00;100687.59;4964229;28;20393;-72
2023/07/31 05:01:32;;;;;;;14.73;7.38;;;;;;;15.16;100.00;100688.09;4966512;28;20046;-71
2023/07/31 05:03:57;;;;;;;13.27;7.35;;;;;;;15.15;100.00;100687.25;4963257;28;20555;-72
2023/07/31 05:06:22;;;;;;;14.07;7.22;;;;;;;15.15;100.00;100689.06;4964594;28;20579;-72
2023/07/31 05:08:48;;;;;;;14.80;7.18;;;;;;;15.13;100.00;100696.34;4964863;28;20033;-72
2023/07/31 05:11:13;;;;;;;12.18;7.03;;;;;;;15.08;100.00;100685.13;4965270;28;20030;-71
2023/07/31 05:13:39;;;;;;;14.68;7.07;;;;;;;15.03;100.00;100689.97;4965304;28;20512;-72
2023/07/31 05:16:04;;;;;;;13.65;7.25;;;;;;;14.97;100.00;100682.38;4967641;28;20508;-72
2023/07/31 05:18:30;;;;;;;11.00;6.88;;;;;;;14.93;100.00;100682.59;4967427;28;20475;-70
2023/07/31 05:20:55;;;;;;;13.70;7.20;;;;;;;14.89;100.00;100682.91;4977140;28;20413;-70
2023/07/31 05:23:20;;;;;;;12.25;7.10;;;;;;;14.89;100.00;100686.44;4970079;28;20035;-67
2023/07/31 05:25:46;;;;;;;12.98;7.03;;;;;;;14.84;100.00;100680.56;4976203;28;20026;-69
2023/07/31 05:28:12;;;;;;;10.18;7.30;;;;;;;14.83;100.00;100686.00;4967900;28;20512;-70
2023/07/31 05:30:37;;;;;;;12.05;7.22;;;;;;;14.78;100.00;100678.31;4967568;28;20026;-69
2023/07/31 05:33:03;;;;;;;11.57;7.03;;;;;;;14.77;100.00;100678.44;4965449;28;20022;-71
2023/07/31 05:35:28;;;;;;;11.52;7.30;;;;;;;14.77;100.00;100684.63;4968610;28;20065;-70
2023/07/31 05:37:54;;;;;;;9.77;7.00;;;;;;;14.74;100.00;100674.13;4968621;28;20127;-71
2023/07/31 05:40:19;;;;;;;13.07;7.55;;;;;;;14.76;100.00;100688.28;4971049;28;20194;-71
2023/07/31 05:42:45;;;;;;;11.50;6.65;;;;;;;14.79;100.00;100676.47;4969857;28;20354;-69
2023/07/31 05:45:13;;;;;;;11.70;7.65;;;;;;;14.81;100.00;100675.41;4967346;28;20420;-69
2023/07/31 05:47:39;;;;;;;13.65;7.22;;;;;;;14.82;100.00;100668.22;4969794;28;20034;-67
2023/07/31 05:50:05;;;;;;;11.05;7.55;;;;;;;14.80;100.00;100668.34;4967443;28;20026;-67
2023/07/31 05:52:30;;;;;;;11.63;7.65;;;;;;;14.83;100.00;100673.47;4968635;28;20371;-67
2023/07/31 05:54:55;;;;;;;13.23;7.80;;;;;;;14.85;100.00;100678.75;4970940;28;20041;-67
2023/07/31 05:57:21;;;;;;;10.48;7.68;;;;;;;14.83;100.00;100673.47;4971375;28;20031;-68
2023/07/31 05:59:46;;;;;;;16.70;8.13;;;;;;;14.85;100.00;100660.84;4964787;28;20038;-70
2023/07/31 06:02:13;;;;;;;12.95;7.80;;;;;;;14.85;100.00;100662.66;4961964;28;20053;-70
2023/07/31 06:04:38;;;;;;;13.88;7.72;;;;;;;14.83;100.00;100657.41;4968261;28;20034;-71
2023/07/31 06:07:04;;;;;;;13.82;8.43;;;;;;;14.83;100.00;100652.03;4964883;28;21187;-71
2023/07/31 06:09:29;;;;;;;12.68;8.63;;;;;;;14.82;100.00;100652.16;4969492;28;20088;-69
2023/07/31 06:11:54;;;;;;;14.02;8.30;;;;;;;14.80;100.00;100654.09;4975912;28;20361;-70
2023/07/31 06:14:20;;;;;;;13.07;8.15;;;;;;;14.77;100.00;100652.50;4979717;28;20500;-71
2023/07/31 06:16:45;;;;;;;13.52;9.00;;;;;;;14.74;100.00;100655.38;4974585;28;20318;-70
2023/07/31 06:19:11;;;;;;;14.27;9.65;;;;;;;14.74;100.00;100654.53;4980065;28;20069;-73
2023/07/31 06:21:37;;;;;;;16.38;10.20;;;;;;;14.69;100.00;100641.47;4980318;28;20054;-72
2023/07/31 06:24:03;;;;;;;15.75;10.32;;;;;;;14.74;100.00;100639.31;4978904;28;20078;-73
2023/07/31 06:26:29;;;;;;;15.77;11.10;;;;;;;14.76;100.00;100644.56;4975262;28;20100;-72
2023/07/31 06:28:54;;;;;;;15.85;10.57;;;;;;;14.75;100.00;100640.16;4972351;28;20041;-73
2023/07/31 06:31:22;;;;;;;14.13;10.13;;;;;;;14.67;100.00;100619.25;4977663;28;20030;-72
2023/07/31 06:33:48;;;;;;;17.33;10.68;;;;;;;14.75;100.00;100638.31;4981703;28;20083;-72
2023/07/31 06:36:14;;;;;;;16.30;10.38;;;;;;;14.76;100.00;100629.34;4978707;28;20042;-71
2023/07/31 06:38:39;;;;;;;19.05;11.82;;;;;;;14.79;100.00;100621.06;4985108;28;20030;-74
2023/07/31 06:41:05;;;;;;;19.92;12.30;;;;;;;14.85;100.00;100631.34;4981438;28;20321;-70
2023/07/31 06:43:30;;;;;;;17.00;11.55;;;;;;;14.82;100.00;100618.19;4980488;28;20467;-71
2023/07/31 06:45:55;;;;;;;15.95;11.10;;;;;;;14.86;100.00;100618.81;4980945;28;20030;-72
2023/07/31 06:48:21;;;;;;;16.83;11.48;;;;;;;14.87;100.00;100631.25;4982981;28;20109;-71
2023/07/31 06:50:46;;;;;;;20.10;11.80;;;;;;;14.93;100.00;100617.41;4979339;28;20030;-71
2023/07/31 06:53:11;;;;;;;17.58;11.90;;;;;;;14.94;100.00;100611.06;4982197;28;20281;-73
2023/07/31 06:55:37;;;;;;;15.77;10.98;;;;;;;14.83;100.00;100611.84;4978553;28;20030;-68
2023/07/31 06:58:02;;;;;;;15.75;10.98;;;;;;;14.85;100.00;100612.59;4978891;28;20030;-70
2023/07/31 07:00:28;;;;;;;16.35;10.95;;;;;;;14.80;100.00;100612.09;4973494;28;20396;-71
2023/07/31 07:02:54;;;;;;;13.80;10.20;;;;;;;14.78;100.00;100622.03;4980699;28;20029;-69
2023/07/31 07:05:19;;;;;;;18.65;11.15;;;;;;;14.90;100.00;100614.94;4979673;28;20125;-71
2023/07/31 07:07:45;;;;;;;14.18;9.65;;;;;;;14.91;100.00;100620.19;4979943;28;20096;-70
2023/07/31 07:10:11;;;;;;;12.77;10.00;;;;;;;14.92;100.00;100613.88;4978978;28;20097;-75
2023/07/31 07:12:37;;;;;;;14.57;10.07;;;;;;;14.92;100.00;100599.59;4979836;28;20386;-73
2023/07/31 07:15:02;;;;;;;14.73;10.75;;;;;;;15.12;100.00;100609.72;4982149;28;20031;-71
2023/07/31 07:17:32;;;;;;;18.27;11.60;;;;;;;15.15;100.00;100603.28;4981204;28;20068;-71
2023/07/31 07:19:58;;;;;;;15.80;10.85;;;;;;;15.02;100.00;100603.34;4982812;28;20061;-70
2023/07/31 07:22:25;;;;;;;14.10;9.57;;;;;;;15.02;100.00;100605.16;4981137;28;20030;-73
2023/07/31 07:24:50;;;;;;;16.15;10.25;;;;;;;15.06;100.00;100598.59;4980331;28;20030;-71
2023/07/31 07:27:16;;;;;;;13.82;9.32;;;;;;;14.97;100.00;100580.53;4976560;28;20038;-72
2023/07/31 07:29:42;;;;;;;10.77;8.63;;;;;;;14.94;100.00;100584.28;4978429;28;20080;-73
2023/07/31 07:32:07;;;;;;;12.45;9.20;;;;;;;15.02;100.00;100581.91;4980670;28;20030;-71
2023/07/31 07:34:33;;;;;;;15.00;9.68;;;;;;;15.06;100.00;100591.41;4980045;28;20026;-71
2023/07/31 07:36:58;;;;;;;12.98;9.65;;;;;;;15.04;100.00;100587.13;4983456;28;20030;-70
2023/07/31 07:39:24;;;;;;;15.93;10.00;;;;;;;15.05;100.00;100586.16;4979932;28;20069;-71
2023/07/31 07:41:50;;;;;;;13.13;8.70;;;;;;;14.98;100.00;100601.00;4980579;28;20793;-74
2023/07/31 07:44:15;;;;;;;14.23;9.82;;;;;;;14.97;100.00;100599.28;4979982;28;20209;-72
2023/07/31 07:46:41;;;;;;;17.45;10.27;;;;;;;15.02;100.00;100603.34;4982800;28;20493;-73
2023/07/31 07:49:07;;;;;;;18.00;10.90;;;;;;;14.97;100.00;100615.38;4980008;28;20037;-71
2023/07/31 07:51:32;;;;;;;16.58;10.77;;;;;;;14.95;100.00;100602.06;4982818;28;20448;-72
2023/07/31 07:53:58;;;;;;;15.57;11.38;;;;;;;14.92;100.00;100600.47;4979087;28;20550;-72
2023/07/31 07:56:26;;;;;;;17.25;11.70;;;;;;;14.93;100.00;100599.50;4978086;28;20041;-71
2023/07/31 07:58:51;;;;;;;15.48;11.38;;;;;;;14.93;100.00;100594.16;4979265;28;20011;-71
2023/07/31 08:01:17;;;;;;;18.40;11.75;;;;;;;14.92;100.00;100596.91;4981455;28;20048;-71
2023/07/31 08:03:42;;;;;;;26.05;14.82;;;;;;;14.93;100.00;100587.94;4975716;28;20034;-71
2023/07/31 08:06:09;;;;;;;18.25;12.18;;;;;;;15.04;100.00;100606.75;4981602;28;20054;-70
2023/07/31 08:08:38;;;;;;;21.58;12.85;;;;;;;15.01;100.00;100588.22;4982259;28;20032;-73
2023/07/31 08:11:03;;;;;;;16.65;12.40;;;;;;;15.03;100.00;100582.75;4976607;28;20125;-73
2023/07/31 08:13:29;;;;;;;19.95;13.90;;;;;;;15.06;100.00;100583.38;4977437;28;20105;-72
2023/07/31 08:15:54;;;;;;;19.45;12.82;;;;;;;15.01;100.00;100580.19;4978062;28;20034;-71
2023/07/31 08:18:20;;;;;;;24.25;13.27;;;;;;;15.07;100.00;100573.50;4978155;28;20030;-70
2023/07/31 08:20:46;;;;;;;20.45;13.23;;;;;;;15.15;100.00;100581.84;4978153;28;20393;-69
2023/07/31 08:23:14;;;;;;;19.40;12.85;;;;;;;15.10;100.00;100594.75;4980169;28;20034;-72
2023/07/31 08:25:39;;;;;;;17.75;11.73;;;;;;;15.15;100.00;100584.53;4982275;28;20050;-70
2023/07/31 08:28:06;;;;;;;17.17;11.77;;;;;;;15.13;100.00;100594.50;4979907;28;20533;-70
2023/07/31 08:30:35;;;;;;;15.73;10.88;;;;;;;15.06;100.00;100590.56;4978392;28;20117;-70
2023/07/31 08:33:00;;;;;;;17.63;11.23;;;;;;;15.06;100.00;100572.66;4985517;28;20110;-71
2023/07/31 08:35:29;;;;;;;16.27;11.02;;;;;;;15.07;100.00;100585.09;4978319;28;20057;-70
2023/07/31 08:37:55;;;;;;;15.68;10.25;;;;;;;15.07;100.00;100590.44;4982905;28;20026;-69
2023/07/31 08:40:24;;;;;;;16.05;10.20;;;;;;;15.04;100.00;100589.81;4978111;28;20030;-69
2023/07/31 08:42:51;;;;;;;17.48;10.65;;;;;;;15.10;100.00;100592.06;4978354;28;20422;-69
2023/07/31 08:45:19;;;;;;;18.23;11.05;;;;;;;15.11;100.00;100591.94;4978933;28;20121;-70
2023/07/31 08:47:47;;;;;;;16.02;10.43;;;;;;;15.05;100.00;100587.03;4980281;28;20033;-70
2023/07/31 08:50:14;;;;;;;14.98;10.63;;;;;;;15.05;100.00;100591.50;4982308;28;20042;-70
2023/07/31 08:52:39;;;;;;;15.85;10.55;;;;;;;15.06;100.00;100582.53;4981930;28;20062;-70
2023/07/31 08:55:06;;;;;;;18.67;11.88;;;;;;;15.13;100.00;100584.66;4979782;28;20050;-70
2023/07/31 08:57:34;;;;;;;19.50;12.35;;;;;;;15.15;100.00;100584.53;4982878;28;20018;-70
2023/07/31 09:00:00;;;;;;;17.98;11.40;;;;;;;15.16;100.00;100564.78;4978809;28;20288;-69
2023/07/31 09:02:31;;;;;;;21.00;12.68;;;;;;;15.23;100.00;100583.97;4975083;28;20034;-69
2023/07/31 09:04:57;;;;;;;15.82;11.10;;;;;;;15.26;100.00;100584.59;4973368;28;20069;-69
2023/07/31 09:07:23;;;;;;;17.33;11.57;;;;;;;15.27;100.00;100586.28;4978411;28;20050;-69
2023/07/31 09:09:49;;;;;;;19.35;11.82;;;;;;;15.23;100.00;100582.13;4978861;28;20073;-69
2023/07/31 09:12:14;;;;;;;20.20;11.63;;;;;;;15.23;100.00;100575.91;4976916;28;20022;-69
2023/07/31 09:14:42;;;;;;;17.73;10.25;;;;;;;15.25;100.00;100584.69;4981238;28;20030;-70
2023/07/31 09:17:07;;;;;;;16.60;10.55;;;;;;;15.19;100.00;100583.31;4976203;28;20563;-69
2023/07/31 09:19:37;;;;;;;17.63;10.93;;;;;;;15.26;100.00;100573.88;4978760;28;20034;-69
2023/07/31 09:22:03;;;;;;;16.60;10.68;;;;;;;15.34;100.00;100559.84;4975234;28;20651;-69
2023/07/31 09:24:32;;;;;;;17.92;12.60;;;;;;;15.40;100.00;100576.34;4978138;28;20038;-69
2023/07/31 09:26:59;;;;;;;17.40;10.93;;;;;;;15.42;100.00;100569.06;4978801;28;20123;-69
2023/07/31 09:29:26;;;;;;;16.02;10.75;;;;;;;15.51;100.00;100566.63;4978325;28;20034;-69
2023/07/31 09:31:52;;;;;;;16.95;10.80;;;;;;;15.57;100.00;100558.97;4981127;28;20093;-70
2023/07/31 09:34:18;;;;;;;15.95;10.50;;;;;;;15.58;100.00;100558.00;4977150;28;20031;-69
2023/07/31 09:36:45;;;;;;;14.57;10.48;;;;;;;15.64;100.00;100562.06;4981812;28;20030;-69
2023/07/31 09:39:13;;;;;;;15.48;9.43;;;;;;;15.71;100.00;100557.09;4977027;28;20100;-71
2023/07/31 09:41:40;;;;;;;16.77;9.27;;;;;;;15.65;100.00;100556.59;4975670;28;20037;-69
2023/07/31 09:44:06;;;;;;;12.60;9.23;;;;;;;15.60;100.00;100541.81;4980979;28;20022;-69
2023/07/31 09:46:35;;;;;;;12.77;8.75;;;;;;;15.59;100.00;100549.00;4981514;28;20395;-70
2023/07/31 09:49:19;;;;;;;16.88;8.98;;;;;;;15.62;100.00;100553.25;4982538;28;20038;-70
2023/07/31 09:51:44;;;;;;;12.10;8.85;;;;;;;15.60;100.00;100555.22;4985977;28;20394;-69
2023/07/31 09:54:14;;;;;;;13.70;9.55;;;;;;;15.75;100.00;100548.69;4979950;28;20033;-69
2023/07/31 09:56:45;;;;;;;13.00;8.77;;;;;;;15.76;100.00;100547.75;4983245;28;20219;-71
2023/07/31 09:59:16;;;;;;;11.80;8.10;;;;;;;15.74;100.00;100554.19;4978024;28;20443;-69
2023/07/31 10:01:44;;;;;;;12.45;8.20;;;;;;;15.76;100.00;100545.06;4984566;28;20030;-69
2023/07/31 10:04:12;;;;;;;12.32;8.35;;;;;;;15.78;100.00;100551.16;4979121;28;20030;-71
2023/07/31 10:06:38;;;;;;;11.07;8.02;;;;;;;15.78;100.00;100555.66;4982991;28;20050;-69
2023/07/31 10:09:10;;;;;;;14.00;8.40;;;;;;;15.79;100.00;100550.16;4979846;28;20436;-70
2023/07/31 10:11:52;;;;;;;16.20;7.15;;;;;;;15.73;100.00;100550.66;4978679;28;20508;-70
2023/07/31 10:14:22;;;;;;;10.77;7.70;;;;;;;15.74;100.00;100546.13;4983804;28;20469;-71
2023/07/31 10:16:48;;;;;;;11.70;7.90;;;;;;;15.82;100.00;100547.25;4982845;28;20099;-70
2023/07/31 10:19:14;;;;;;;13.05;7.63;;;;;;;15.79;100.00;100543.94;4980838;28;20737;-70
2023/07/31 10:21:41;;;;;;;11.18;7.30;;;;;;;15.80;100.00;100546.53;4976532;28;20582;-71
2023/07/31 10:24:07;;;;;;;11.23;7.07;;;;;;;15.79;100.00;100542.13;4977322;28;20108;-72
2023/07/31 10:26:35;;;;;;;11.13;7.13;;;;;;;15.85;100.00;100535.44;4974765;28;20538;-72
2023/07/31 10:29:01;;;;;;;11.05;6.75;;;;;;;15.88;100.00;100538.75;4981015;28;20053;-70
2023/07/31 10:31:28;;;;;;;10.68;6.90;;;;;;;15.85;100.00;100538.13;4973550;28;20400;-71
2023/07/31 10:33:55;;;;;;;13.98;6.88;;;;;;;15.91;100.00;100549.22;4972340;28;20019;-71
2023/07/31 10:36:21;;;;;;;8.25;6.75;;;;;;;16.05;100.00;100544.59;4978844;28;20025;-71
2023/07/31 10:38:50;;;;;;;14.57;6.90;;;;;;;16.22;100.00;100541.47;4970859;28;20045;-70
2023/07/31 10:41:16;;;;;;;9.52;6.60;;;;;;;16.29;100.00;100552.56;4975650;28;20038;-71
2023/07/31 10:43:42;;;;;;;8.32;6.63;;;;;;;16.36;100.00;100543.88;4978489;28;20033;-71
2023/07/31 10:46:11;;;;;;;7.20;5.55;;;;;;;16.38;100.00;100539.22;4981529;28;20034;-73
2023/07/31 10:48:38;;;;;;;7.18;5.32;;;;;;;16.42;100.00;100540.69;4974421;28;20045;-70
2023/07/31 10:51:08;;;;;;;6.80;5.20;;;;;;;16.44;100.00;100548.66;4974289;28;20062;-72
2023/07/31 10:53:34;;;;;;;7.03;5.15;;;;;;;16.46;100.00;100543.16;4978140;28;20045;-71
2023/07/31 10:56:07;;;;;;;7.97;5.57;;;;;;;16.75;100.00;100546.19;4973327;28;20035;-71
2023/07/31 10:58:32;;;;;;;7.05;5.82;;;;;;;16.93;100.00;100533.97;4975461;28;20405;-71
2023/07/31 11:01:02;;;;;;;6.43;5.10;;;;;;;17.01;100.00;100536.00;4974277;28;20536;-71
2023/07/31 11:03:49;;;;;;;7.22;4.47;;;;;;;17.00;100.00;100529.75;4975209;28;20034;-70